createdAt,value
2023-05-14T00:02:05.638Z,99.90
2023-05-14T00:04:33.562Z,99.90
2023-05-14T00:07:02.887Z,99.90
2023-05-14T00:09:31.064Z,99.90
2023-05-14T00:11:58.837Z,99.90
2023-05-14T00:14:26.618Z,99.90
2023-05-14T00:16:54.419Z,99.90
2023-05-14T00:19:22.388Z,99.90
2023-05-14T00:21:50.169Z,99.90
2023-05-14T00:24:19.288Z,99.90
2023-05-14T00:26:47.051Z,99.90
2023-05-14T00:29:14.786Z,99.90
2023-05-14T00:31:42.730Z,99.90
2023-05-14T00:34:10.466Z,99.90
2023-05-14T00:36:38.149Z,99.90
2023-05-14T00:39:05.936Z,99.90
2023-05-14T00:41:35.013Z,99.90
2023-05-14T00:44:03.051Z,99.90
2023-05-14T00:46:30.836Z,99.90
2023-05-14T00:48:59.386Z,99.90
2023-05-14T00:51:27.487Z,99.90
2023-05-14T00:53:55.760Z,99.90
2023-05-14T00:56:24.835Z,99.90
2023-05-14T00:58:54.135Z,99.90
2023-05-14T01:01:22.076Z,99.90
2023-05-14T01:03:53.405Z,99.90
2023-05-14T01:06:28.154Z,99.90
2023-05-14T01:09:04.541Z,99.90
2023-05-14T01:11:40.896Z,99.90
2023-05-14T01:14:17.789Z,99.90
2023-05-14T01:16:47.154Z,99.90
2023-05-14T01:19:23.409Z,99.90
2023-05-14T01:21:52.467Z,99.90
2023-05-14T01:24:20.196Z,99.90
2023-05-14T01:26:48.032Z,99.90
2023-05-14T01:29:20.850Z,99.90
2023-05-14T01:31:51.452Z,99.90
2023-05-14T01:34:23.623Z,99.90
2023-05-14T01:36:53.726Z,99.90
2023-05-14T01:39:22.351Z,99.90
2023-05-14T01:41:50.868Z,99.90
2023-05-14T01:44:19.241Z,99.90
2023-05-14T01:46:46.924Z,99.90
2023-05-14T01:49:16.025Z,99.90
2023-05-14T01:51:43.759Z,99.90
2023-05-14T01:54:13.016Z,99.90
2023-05-14T01:56:40.751Z,99.90
2023-05-14T01:59:08.537Z,99.90
2023-05-14T02:01:38.167Z,99.90
2023-05-14T02:04:06.142Z,99.90
2023-05-14T02:06:33.975Z,99.90
2023-05-14T02:09:02.050Z,99.90
2023-05-14T02:11:31.336Z,99.90
2023-05-14T02:13:59.298Z,99.90
2023-05-14T02:16:27.170Z,99.90
2023-05-14T02:18:54.979Z,99.90
2023-05-14T02:21:22.789Z,99.90
2023-05-14T02:23:51.211Z,99.90
2023-05-14T02:26:19.026Z,99.90
2023-05-14T02:28:48.140Z,99.90
2023-05-14T02:31:17.666Z,99.90
2023-05-14T02:33:45.488Z,99.90
2023-05-14T02:36:13.481Z,99.90
2023-05-14T02:38:41.251Z,99.90
2023-05-14T02:41:08.972Z,99.90
2023-05-14T02:43:36.806Z,99.90
2023-05-14T02:46:06.041Z,99.90
2023-05-14T02:48:33.804Z,99.90
2023-05-14T02:51:01.873Z,99.90
2023-05-14T02:53:29.630Z,99.90
2023-05-14T02:55:57.420Z,99.90
2023-05-14T02:58:28.380Z,99.90
2023-05-14T03:00:56.576Z,99.90
2023-05-14T03:03:26.227Z,99.90
2023-05-14T03:05:54.689Z,99.90
2023-05-14T03:08:22.583Z,99.90
2023-05-14T03:10:50.639Z,99.90
2023-05-14T03:13:20.615Z,99.90
2023-05-14T03:15:48.921Z,99.90
2023-05-14T03:18:16.629Z,99.90
2023-05-14T03:20:45.685Z,99.90
2023-05-14T03:23:14.715Z,99.90
2023-05-14T03:25:42.694Z,99.90
2023-05-14T03:28:10.734Z,99.90
2023-05-14T03:30:38.545Z,99.90
2023-05-14T03:33:06.623Z,99.90
2023-05-14T03:35:34.418Z,99.90
2023-05-14T03:38:03.569Z,99.90
2023-05-14T03:40:31.570Z,99.90
2023-05-14T03:42:59.441Z,99.90
2023-05-14T03:45:28.681Z,99.90
2023-05-14T03:47:56.536Z,99.90
2023-05-14T03:50:25.658Z,99.90
2023-05-14T03:52:54.970Z,99.90
2023-05-14T03:55:24.301Z,99.90
2023-05-14T03:57:52.164Z,99.90
2023-05-14T04:00:21.299Z,99.90
2023-05-14T04:02:49.169Z,99.90
2023-05-14T04:05:17.127Z,99.90
2023-05-14T04:07:45.790Z,99.90
2023-05-14T04:10:14.026Z,99.90
2023-05-14T04:12:43.187Z,99.90
2023-05-14T04:15:11.988Z,99.90
2023-05-14T04:17:39.695Z,99.90
2023-05-14T04:20:09.025Z,99.90
2023-05-14T04:22:37.474Z,99.90
2023-05-14T04:25:05.716Z,99.90
2023-05-14T04:27:34.520Z,99.90
2023-05-14T04:30:03.991Z,99.90
2023-05-14T04:32:31.742Z,99.90
2023-05-14T04:34:59.529Z,99.90
2023-05-14T04:37:27.251Z,99.90
2023-05-14T04:39:55.139Z,99.90
2023-05-14T04:42:22.987Z,99.90
2023-05-14T04:44:50.731Z,99.90
2023-05-14T04:47:21.118Z,99.90
2023-05-14T04:49:49.200Z,99.90
2023-05-14T04:52:16.925Z,99.90
2023-05-14T04:54:44.848Z,99.90
2023-05-14T04:57:12.654Z,99.90
2023-05-14T04:59:40.381Z,99.90
2023-05-14T05:02:08.102Z,99.90
2023-05-14T05:04:37.205Z,99.90
2023-05-14T05:07:05.779Z,99.90
2023-05-14T05:09:33.624Z,99.90
2023-05-14T05:12:02.150Z,99.90
2023-05-14T05:14:29.866Z,99.90
2023-05-14T05:16:57.569Z,99.90
2023-05-14T05:19:35.620Z,99.90
2023-05-14T05:22:12.032Z,99.90
2023-05-14T05:24:39.786Z,99.90
2023-05-14T05:27:07.509Z,99.90
2023-05-14T05:29:36.315Z,99.90
2023-05-14T05:32:04.343Z,99.90
2023-05-14T05:34:32.141Z,99.90
2023-05-14T05:36:59.853Z,99.90
2023-05-14T05:39:34.834Z,99.90
2023-05-14T05:42:03.163Z,99.90
2023-05-14T05:44:31.067Z,99.90
2023-05-14T05:46:58.855Z,99.90
2023-05-14T05:49:26.758Z,99.90
2023-05-14T05:51:54.496Z,99.90
2023-05-14T05:54:22.317Z,99.90
2023-05-14T05:56:51.376Z,99.90
2023-05-14T05:59:19.143Z,99.90
2023-05-14T06:01:48.104Z,99.90
2023-05-14T06:04:15.900Z,99.90
2023-05-14T06:06:43.690Z,99.90
2023-05-14T06:09:11.462Z,99.90
2023-05-14T06:11:39.160Z,99.90
2023-05-14T06:14:08.210Z,99.90
2023-05-14T06:16:36.170Z,99.90
2023-05-14T06:19:08.334Z,99.90
2023-05-14T06:21:36.266Z,99.90
2023-05-14T06:24:07.255Z,99.90
2023-05-14T06:26:35.010Z,99.90
2023-05-14T06:29:03.352Z,99.90
2023-05-14T06:31:32.432Z,99.90
2023-05-14T06:34:00.153Z,99.90
2023-05-14T06:36:27.994Z,99.90
2023-05-14T06:38:56.063Z,99.90
2023-05-14T06:41:23.739Z,99.90
2023-05-14T06:43:51.558Z,99.90
2023-05-14T06:46:19.471Z,99.90
2023-05-14T06:48:48.848Z,99.90
2023-05-14T06:51:16.895Z,99.90
2023-05-14T06:53:44.630Z,99.90
2023-05-14T06:56:13.717Z,99.90
2023-05-14T06:59:00.437Z,99.90
2023-05-14T07:01:28.326Z,99.90
2023-05-14T07:03:57.552Z,99.90
2023-05-14T07:06:25.370Z,99.90
2023-05-14T07:08:53.333Z,99.90
2023-05-14T07:11:22.267Z,99.90
2023-05-14T07:13:50.036Z,99.90
2023-05-14T07:16:17.937Z,99.90
2023-05-14T07:18:45.980Z,99.90
2023-05-14T07:21:15.033Z,99.90
2023-05-14T07:23:42.750Z,99.90
2023-05-14T07:26:10.605Z,99.90
2023-05-14T07:28:38.544Z,99.90
2023-05-14T07:31:09.054Z,99.90
2023-05-14T07:37:26.287Z,99.90
2023-05-14T07:39:54.127Z,99.90
2023-05-14T07:42:34.995Z,99.90
2023-05-14T07:45:04.318Z,99.90
2023-05-14T07:47:37.032Z,99.90
2023-05-14T07:50:05.909Z,99.90
2023-05-14T07:52:36.501Z,99.90
2023-05-14T07:55:25.751Z,99.90
2023-05-14T07:57:53.673Z,99.90
2023-05-14T08:03:13.383Z,99.90
2023-05-14T08:05:41.227Z,99.90
2023-05-14T08:11:03.120Z,99.90
2023-05-14T08:13:30.882Z,98.50
2023-05-14T08:15:58.726Z,98.50
2023-05-14T08:18:26.552Z,97.80
2023-05-14T08:20:54.347Z,98.20
2023-05-14T08:23:23.666Z,97.20
2023-05-14T08:25:51.451Z,96.50
2023-05-14T08:28:19.312Z,96.10
2023-05-14T08:30:47.552Z,93.20
2023-05-14T08:33:15.374Z,85.00
2023-05-14T08:35:43.219Z,74.90
2023-05-14T08:38:11.052Z,69.50
2023-05-14T08:40:40.922Z,70.00
2023-05-14T08:43:11.341Z,65.00
2023-05-14T08:45:40.980Z,64.90
2023-05-14T08:48:11.928Z,64.00
2023-05-14T08:50:40.138Z,59.50
2023-05-14T08:53:08.182Z,56.10
2023-05-14T08:55:38.835Z,56.10
2023-05-14T08:58:07.970Z,55.40
2023-05-14T09:00:36.141Z,52.80
2023-05-14T09:03:06.788Z,50.80
2023-05-14T09:05:34.912Z,46.10
2023-05-14T09:08:02.846Z,44.00
2023-05-14T09:10:30.691Z,41.90
2023-05-14T09:12:58.772Z,41.90
2023-05-14T09:15:30.150Z,40.40
2023-05-14T09:17:58.629Z,39.90
2023-05-14T09:20:28.674Z,38.90
2023-05-14T09:23:46.842Z,38.00
2023-05-14T09:26:02.184Z,37.70
2023-05-14T09:28:31.543Z,38.70
2023-05-14T09:31:00.759Z,38.60
2023-05-14T09:33:29.387Z,39.20
2023-05-14T09:36:00.608Z,41.10
2023-05-14T09:38:31.672Z,38.80
2023-05-14T09:41:00.494Z,37.40
2023-05-14T09:43:28.497Z,38.60
2023-05-14T09:45:56.608Z,38.30
2023-05-14T09:48:26.436Z,38.40
2023-05-14T09:50:58.274Z,38.30
2023-05-14T09:53:26.227Z,38.20
2023-05-14T09:55:54.035Z,37.80
2023-05-14T09:58:34.641Z,37.80
2023-05-14T10:01:03.462Z,37.40
2023-05-14T10:03:33.890Z,35.30
2023-05-14T10:06:05.845Z,34.90
2023-05-14T10:08:35.649Z,36.80
2023-05-14T10:11:07.587Z,37.30
2023-05-14T10:13:40.605Z,38.00
2023-05-14T10:16:14.772Z,39.90
2023-05-14T10:18:48.641Z,38.70
2023-05-14T10:21:17.839Z,39.90
2023-05-14T10:28:05.083Z,41.90
2023-05-14T10:30:36.037Z,45.40
2023-05-14T10:33:08.596Z,45.70
2023-05-14T10:36:01.373Z,41.90
2023-05-14T10:38:30.636Z,43.70
2023-05-14T10:41:02.317Z,45.80
2023-05-14T10:43:31.164Z,48.70
2023-05-14T10:46:01.024Z,46.90
2023-05-14T10:48:29.121Z,47.30
2023-05-14T10:50:58.698Z,51.20
2023-05-14T10:53:34.647Z,49.20
2023-05-14T10:56:07.012Z,43.40
2023-05-14T10:58:38.212Z,39.50
2023-05-14T11:01:08.761Z,39.40
2023-05-14T11:03:41.644Z,42.90
2023-05-14T11:06:11.956Z,47.20
2023-05-14T11:08:40.459Z,48.50
2023-05-14T11:11:09.645Z,51.50
2023-05-14T11:13:37.747Z,52.50
2023-05-14T11:18:38.948Z,55.60
2023-05-14T11:21:06.969Z,57.70
2023-05-14T11:23:36.238Z,58.40
2023-05-14T11:26:04.504Z,57.60
2023-05-14T11:28:32.411Z,57.30
2023-05-14T11:31:00.247Z,58.00
2023-05-14T11:33:28.800Z,57.50
2023-05-14T11:35:56.726Z,57.80
2023-05-14T11:38:24.448Z,58.50
2023-05-14T11:40:57.839Z,59.00
2023-05-14T11:43:29.140Z,57.10
2023-05-14T11:45:57.440Z,54.80
2023-05-14T11:48:25.454Z,53.80
2023-05-14T11:50:54.191Z,52.80
2023-05-14T11:53:27.040Z,54.30
2023-05-14T11:55:57.804Z,53.60
2023-05-14T11:58:25.976Z,54.60
2023-05-14T12:00:56.643Z,55.80
2023-05-14T12:03:26.504Z,54.00
2023-05-14T12:05:58.468Z,53.80
2023-05-14T12:08:28.829Z,53.30
2023-05-14T12:11:00.077Z,54.50
2023-05-14T12:13:28.387Z,51.80
2023-05-14T12:16:01.037Z,52.30
2023-05-14T12:18:32.061Z,51.70
2023-05-14T12:21:09.801Z,51.50
2023-05-14T12:23:40.461Z,55.50
2023-05-14T12:26:10.403Z,51.50
2023-05-14T12:28:43.725Z,50.70
2023-05-14T12:31:11.918Z,52.30
2023-05-14T12:33:39.958Z,55.40
2023-05-14T12:36:20.549Z,55.70
2023-05-14T12:38:49.615Z,53.30
2023-05-14T12:41:18.963Z,52.10
2023-05-14T12:43:49.676Z,51.70
2023-05-14T12:46:17.578Z,52.40
2023-05-14T12:48:45.486Z,53.50
2023-05-14T12:51:13.469Z,55.30
2023-05-14T12:53:41.216Z,54.70
2023-05-14T12:56:09.616Z,54.70
2023-05-14T12:58:39.129Z,55.40
2023-05-14T13:01:07.720Z,56.10
2023-05-14T13:03:35.544Z,55.90
2023-05-14T13:06:03.696Z,56.80
2023-05-14T13:08:31.537Z,57.40
2023-05-14T13:10:59.346Z,59.00
2023-05-14T13:13:27.234Z,55.50
2023-05-14T13:15:56.369Z,55.50
2023-05-14T13:18:25.871Z,56.00
2023-05-14T13:20:53.786Z,55.60
2023-05-14T13:23:21.573Z,54.90
2023-05-14T13:25:50.070Z,55.50
2023-05-14T13:28:17.965Z,56.50
2023-05-14T13:31:06.986Z,57.10
2023-05-14T13:33:36.389Z,55.90
2023-05-14T13:36:04.590Z,55.90
2023-05-14T13:38:32.490Z,57.80
2023-05-14T13:41:02.557Z,57.10
2023-05-14T13:43:31.288Z,56.60
2023-05-14T13:45:59.260Z,55.00
2023-05-14T13:48:28.961Z,56.40
2023-05-14T13:50:56.737Z,57.60
2023-05-14T13:53:25.688Z,58.30
2023-05-14T13:55:56.417Z,57.70
2023-05-14T13:58:25.275Z,60.70
2023-05-14T14:00:53.655Z,56.60
2023-05-14T14:03:21.612Z,57.00
2023-05-14T14:05:52.179Z,55.70
2023-05-14T14:08:23.758Z,56.80
2023-05-14T14:10:53.153Z,56.00
2023-05-14T14:13:21.241Z,54.90
2023-05-14T14:15:49.161Z,57.70
2023-05-14T14:18:17.056Z,55.30
2023-05-14T14:20:45.013Z,55.90
2023-05-14T14:23:14.452Z,55.60
2023-05-14T14:25:42.381Z,55.60
2023-05-14T14:28:10.374Z,56.20
2023-05-14T14:30:38.277Z,55.20
2023-05-14T14:33:06.272Z,55.80
2023-05-14T14:35:35.365Z,56.50
2023-05-14T14:38:03.556Z,58.40
2023-05-14T14:40:34.059Z,58.10
2023-05-14T14:43:02.035Z,58.80
2023-05-14T14:45:29.862Z,58.60
2023-05-14T14:48:26.293Z,59.20
2023-05-14T14:50:54.205Z,57.70
2023-05-14T14:53:23.002Z,57.90
2023-05-14T14:55:52.937Z,58.90
2023-05-14T14:58:21.626Z,57.90
2023-05-14T15:00:50.998Z,58.30
2023-05-14T15:03:19.491Z,58.70
2023-05-14T15:05:47.527Z,59.70
2023-05-14T15:08:16.036Z,59.40
2023-05-14T15:10:45.087Z,58.80
2023-05-14T15:13:14.465Z,58.90
2023-05-14T15:15:42.306Z,59.30
2023-05-14T15:18:10.355Z,60.20
2023-05-14T15:20:38.446Z,60.40
2023-05-14T15:23:06.866Z,60.40
2023-05-14T15:25:34.830Z,59.20
2023-05-14T15:28:02.660Z,58.60
2023-05-14T15:30:31.807Z,60.00
2023-05-14T15:32:59.655Z,58.70
2023-05-14T15:35:27.508Z,59.30
2023-05-14T15:37:57.994Z,60.00
2023-05-14T15:40:26.019Z,57.80
2023-05-14T15:42:54.033Z,58.70
2023-05-14T15:45:22.030Z,58.20
2023-05-14T15:47:51.093Z,57.70
2023-05-14T15:50:18.959Z,58.90
2023-05-14T15:52:47.026Z,57.90
2023-05-14T15:55:14.899Z,59.90
2023-05-14T15:57:42.796Z,60.30
2023-05-14T16:00:11.691Z,59.20
2023-05-14T16:02:40.262Z,58.80
2023-05-14T16:05:10.074Z,62.90
2023-05-14T16:07:38.246Z,59.60
2023-05-14T16:10:07.165Z,59.60
2023-05-14T16:12:35.012Z,59.30
2023-05-14T16:15:03.006Z,58.30
2023-05-14T16:17:32.794Z,59.00
2023-05-14T16:20:00.984Z,58.70
2023-05-14T16:22:31.938Z,59.50
2023-05-14T16:25:01.784Z,59.70
2023-05-14T16:27:31.275Z,59.40
2023-05-14T16:29:59.176Z,61.70
2023-05-14T16:32:27.700Z,58.80
2023-05-14T16:34:56.505Z,58.70
2023-05-14T16:37:24.605Z,58.40
2023-05-14T16:39:53.779Z,59.00
2023-05-14T16:42:21.560Z,59.30
2023-05-14T16:44:49.506Z,60.30
2023-05-14T16:47:17.526Z,60.90
2023-05-14T16:49:45.385Z,59.20
2023-05-14T16:52:13.132Z,60.90
2023-05-14T16:54:41.270Z,60.00
2023-05-14T16:57:10.417Z,59.70
2023-05-14T16:59:38.437Z,60.50
2023-05-14T17:02:06.403Z,61.50
2023-05-14T17:04:38.756Z,63.00
2023-05-14T17:07:07.026Z,62.90
2023-05-14T17:09:34.819Z,63.50
2023-05-14T17:12:02.857Z,63.80
2023-05-14T17:14:31.962Z,64.50
2023-05-14T17:16:59.749Z,66.10
2023-05-14T17:19:27.548Z,66.60
2023-05-14T17:21:55.360Z,67.50
2023-05-14T17:24:23.361Z,68.50
2023-05-14T17:26:51.256Z,70.00
2023-05-14T17:29:20.981Z,69.70
2023-05-14T17:31:51.159Z,70.30
2023-05-14T17:34:21.182Z,69.00
2023-05-14T17:36:51.669Z,68.90
2023-05-14T17:39:19.922Z,69.20
2023-05-14T17:44:30.419Z,71.10
2023-05-14T17:47:00.565Z,75.70
2023-05-14T17:49:28.618Z,71.90
2023-05-14T17:51:56.437Z,72.60
2023-05-14T17:54:24.482Z,74.00
2023-05-14T17:56:52.510Z,73.60
2023-05-14T17:59:21.911Z,75.10
2023-05-14T18:01:54.636Z,75.50
2023-05-14T18:04:23.900Z,77.90
2023-05-14T18:06:51.840Z,86.90
2023-05-14T18:12:02.927Z,96.50
2023-05-14T18:14:31.249Z,99.90
2023-05-14T18:16:59.129Z,99.90
2023-05-14T18:19:30.566Z,99.90
2023-05-14T18:21:58.907Z,99.90
2023-05-14T18:24:31.133Z,99.90
2023-05-14T18:27:00.082Z,99.90
2023-05-14T18:29:27.985Z,99.90
2023-05-14T18:31:55.883Z,99.90
2023-05-14T18:34:23.719Z,99.90
2023-05-14T18:36:53.705Z,99.90
2023-05-14T18:39:21.735Z,99.90
2023-05-14T18:41:49.855Z,99.90
2023-05-14T18:44:18.022Z,99.90
2023-05-14T18:46:46.153Z,99.90
2023-05-14T18:49:14.158Z,99.90
2023-05-14T18:51:42.026Z,99.90
2023-05-14T18:54:11.314Z,99.90
2023-05-14T18:56:40.037Z,99.90
2023-05-14T18:59:07.935Z,99.90
2023-05-14T19:01:39.312Z,99.90
2023-05-14T19:04:08.514Z,99.90
2023-05-14T19:06:36.781Z,99.90
2023-05-14T19:09:08.005Z,99.90
2023-05-14T19:11:37.454Z,99.90
2023-05-14T19:14:05.469Z,99.90
2023-05-14T19:16:33.672Z,99.90
2023-05-14T19:19:01.804Z,99.90
2023-05-14T19:21:29.671Z,99.90
2023-05-14T19:23:57.647Z,99.90
2023-05-14T19:26:25.596Z,99.90
2023-05-14T19:28:58.452Z,99.90
2023-05-14T19:31:26.357Z,99.90
2023-05-14T19:33:54.625Z,99.90
2023-05-14T19:36:23.019Z,99.90
2023-05-14T19:38:56.087Z,99.90
2023-05-14T19:41:27.593Z,99.90
2023-05-14T19:43:57.211Z,99.90
2023-05-14T19:46:25.223Z,99.90
2023-05-14T19:48:53.207Z,99.90
2023-05-14T19:51:20.966Z,99.90
2023-05-14T19:53:49.028Z,99.90
2023-05-14T19:56:17.081Z,99.90
2023-05-14T19:58:45.111Z,99.90
2023-05-14T20:01:14.678Z,99.90
2023-05-14T20:03:42.547Z,99.90
2023-05-14T20:06:10.828Z,99.90
2023-05-14T20:08:38.827Z,99.90
2023-05-14T20:11:07.228Z,99.90
2023-05-14T20:13:36.724Z,99.90
2023-05-14T20:16:07.465Z,99.90
2023-05-14T20:18:37.074Z,99.90
2023-05-14T20:21:05.543Z,99.90
2023-05-14T20:23:33.637Z,99.90
2023-05-14T20:26:02.374Z,99.90
2023-05-14T20:28:30.157Z,99.90
2023-05-14T20:30:58.955Z,99.90
2023-05-14T20:33:29.153Z,99.90
2023-05-14T20:35:58.827Z,99.90
2023-05-14T20:38:36.791Z,99.90
2023-05-14T20:41:06.006Z,99.90
2023-05-14T20:43:33.684Z,99.90
2023-05-14T20:46:01.497Z,99.90
2023-05-14T20:48:29.272Z,99.90
2023-05-14T20:51:00.034Z,99.90
2023-05-14T20:53:28.733Z,99.90
2023-05-14T20:55:56.704Z,99.90
2023-05-14T20:58:24.352Z,99.90
2023-05-14T21:00:52.088Z,99.90
2023-05-14T21:03:19.947Z,99.90
2023-05-14T21:05:47.769Z,99.90
2023-05-14T21:08:17.115Z,99.90
2023-05-14T21:10:44.809Z,99.90
2023-05-14T21:13:12.498Z,99.90
2023-05-14T21:15:40.257Z,99.90
2023-05-14T21:18:08.037Z,99.90
2023-05-14T21:20:35.847Z,99.90
2023-05-14T21:23:03.903Z,99.90
2023-05-14T21:25:32.959Z,99.90
2023-05-14T21:28:00.668Z,99.90
2023-05-14T21:30:28.358Z,99.90
2023-05-14T21:32:56.203Z,99.90
2023-05-14T21:35:24.115Z,99.90
2023-05-14T21:37:52.313Z,99.90
2023-05-14T21:40:20.150Z,99.90
2023-05-14T21:42:49.157Z,99.90
2023-05-14T21:45:16.939Z,99.90
2023-05-14T21:47:44.779Z,99.90
2023-05-14T21:50:13.726Z,99.90
2023-05-14T21:52:41.516Z,99.90
2023-05-14T21:55:10.115Z,99.90
2023-05-14T21:57:37.915Z,99.90
2023-05-14T22:00:12.524Z,99.90
2023-05-14T22:02:40.290Z,99.90
2023-05-14T22:05:08.553Z,99.90
2023-05-14T22:07:36.335Z,99.90
2023-05-14T22:10:04.183Z,99.90
2023-05-14T22:12:32.201Z,99.90
2023-05-14T22:14:59.895Z,99.90
2023-05-14T22:17:29.023Z,99.90
2023-05-14T22:19:56.861Z,99.90
2023-05-14T22:22:24.540Z,99.90
2023-05-14T22:24:52.248Z,99.90
2023-05-14T22:27:19.969Z,99.90
2023-05-14T22:29:47.644Z,99.90
2023-05-14T22:32:15.312Z,99.90
2023-05-14T22:34:44.338Z,99.90
2023-05-14T22:37:12.015Z,99.90
2023-05-14T22:39:39.727Z,99.90
2023-05-14T22:42:07.557Z,99.90
2023-05-14T22:44:35.497Z,99.90
2023-05-14T22:47:03.415Z,99.90
2023-05-14T22:49:31.352Z,99.90
2023-05-14T22:52:00.425Z,99.90
2023-05-14T22:54:28.154Z,99.90
2023-05-14T22:56:55.916Z,99.90
2023-05-14T22:59:23.963Z,99.90
2023-05-14T23:01:51.866Z,99.90
2023-05-14T23:04:19.592Z,99.90
2023-05-14T23:06:47.427Z,99.90
2023-05-14T23:09:16.440Z,99.90
2023-05-14T23:11:44.099Z,99.90
2023-05-14T23:14:11.975Z,99.90
2023-05-14T23:16:39.748Z,99.90
2023-05-14T23:19:07.681Z,99.90
2023-05-14T23:21:35.486Z,99.90
2023-05-14T23:24:03.144Z,99.90
2023-05-14T23:26:32.442Z,99.90
2023-05-14T23:29:00.211Z,99.90
2023-05-14T23:31:28.040Z,99.90
2023-05-14T23:33:55.770Z,99.90
2023-05-14T23:36:23.876Z,99.90
2023-05-14T23:38:51.889Z,99.90
2023-05-14T23:41:20.586Z,99.90
2023-05-14T23:43:49.842Z,99.90
2023-05-14T23:46:17.700Z,99.90
2023-05-14T23:48:45.610Z,99.90
2023-05-14T23:51:13.297Z,99.90
2023-05-14T23:53:40.980Z,99.90
2023-05-14T23:56:09.574Z,99.90
2023-05-14T23:58:37.310Z,99.90
